Time,TemperatureF,DewpointF,PressureIn,WindDirection,WindDirectionDegrees,WindSpeedMPH,WindSpeedGustMPH,Humidity,HourlyPrecipIn,Conditions,Clouds,dailyrainin,SoftwareType,DateUTC
2013-03-19 00:00:00,35.3,32.1,29.91,ESE,103,0.0,0.0,88,0.00,,SCT,0.00,VWS V14.01,2013-03-19 04:00:00,
2013-03-19 00:05:00,35.5,32.3,29.91,ESE,103,0.0,0.0,88,0.00,,SCT,0.00,VWS V14.01,2013-03-19 04:05:00,
2013-03-19 00:10:00,35.7,32.5,29.88,ESE,103,0.0,0.0,88,0.00,,SCT,0.00,VWS V14.01,2013-03-19 04:10:00,
2013-03-19 00:15:00,35.7,32.5,29.88,ESE,103,0.0,0.0,88,0.00,,SCT,0.00,VWS V14.01,2013-03-19 04:15:00,
2013-03-19 00:20:00,35.9,32.9,29.88,ESE,103,0.0,0.0,89,0.00,,SCT,0.00,VWS V14.01,2013-03-19 04:20:00,
2013-03-19 00:25:00,35.9,32.9,29.88,ENE,73,0.0,0.0,89,0.00,,SCT,0.00,VWS V14.01,2013-03-19 04:25:00,
2013-03-19 00:30:00,35.9,32.9,29.88,ENE,74,0.0,0.0,89,0.00,,SCT,0.00,VWS V14.01,2013-03-19 04:30:00,
2013-03-19 00:36:00,36.0,33.1,29.88,ENE,74,0.0,0.0,89,0.00,,SCT,0.00,VWS V14.01,2013-03-19 04:36:00,
2013-03-19 00:41:00,36.0,33.1,29.88,ENE,74,0.0,0.0,89,0.00,,SCT,0.00,VWS V14.01,2013-03-19 04:41:00,
2013-03-19 00:46:00,35.7,32.5,29.88,ENE,74,0.0,0.0,88,0.00,,SCT,0.00,VWS V14.01,2013-03-19 04:46:00,
2013-03-19 00:51:00,35.5,32.3,29.88,ENE,74,0.0,0.0,88,0.00,,SCT,0.00,VWS V14.01,2013-03-19 04:51:00,
2013-03-19 00:56:00,35.7,32.5,29.88,ENE,74,0.0,0.0,88,0.00,,SCT,0.00,VWS V14.01,2013-03-19 04:56:00,
2013-03-19 01:01:00,35.7,32.5,29.88,ENE,74,0.0,0.0,88,0.00,,SCT,0.00,VWS V14.01,2013-03-19 05:01:00,
2013-03-19 01:06:00,35.7,32.5,29.88,ENE,73,0.0,0.0,88,0.00,,SCT,0.00,VWS V14.01,2013-03-19 05:06:00,
2013-03-19 01:11:00,35.7,32.8,29.88,ENE,74,0.0,0.0,89,0.00,,SCT,0.00,VWS V14.01,2013-03-19 05:11:00,
2013-03-19 01:16:00,35.7,32.8,29.88,ENE,74,0.0,0.0,89,0.00,,SCT,0.00,VWS V14.01,2013-03-19 05:16:00,
2013-03-19 01:21:00,35.7,32.8,29.88,ENE,74,0.0,0.0,89,0.00,,SCT,0.00,VWS V14.01,2013-03-19 05:21:00,
2013-03-19 01:26:00,35.7,32.8,29.88,ENE,74,0.0,0.0,89,0.00,,SCT,0.00,VWS V14.01,2013-03-19 05:26:00,
2013-03-19 01:31:00,35.7,32.8,29.88,ENE,73,0.0,0.0,89,0.00,,SCT,0.00,VWS V14.01,2013-03-19 05:31:00,
2013-03-19 01:36:00,35.7,32.8,29.88,ENE,74,0.0,0.0,89,0.00,,SCT,0.00,VWS V14.01,2013-03-19 05:36:00,
2013-03-19 01:41:00,35.7,32.8,29.88,ENE,73,2.7,2.7,89,0.00,,SCT,0.00,VWS V14.01,2013-03-19 05:41:00,
2013-03-19 01:46:00,35.7,32.8,29.88,ENE,74,0.0,0.0,89,0.00,,SCT,0.00,VWS V14.01,2013-03-19 05:46:00,
2013-03-19 01:51:00,35.7,32.8,29.88,ENE,74,0.0,0.0,89,0.00,,SCT,0.00,VWS V14.01,2013-03-19 05:51:00,
2013-03-19 01:56:00,35.7,32.8,29.88,ENE,74,0.0,0.0,89,0.00,,SCT,0.00,VWS V14.01,2013-03-19 05:56:00,
2013-03-19 02:01:00,35.7,32.8,29.88,ENE,74,0.0,0.0,89,0.00,,SCT,0.00,VWS V14.01,2013-03-19 06:01:00,
2013-03-19 02:06:00,35.7,32.8,29.88,ENE,73,0.0,0.0,89,0.00,,SCT,0.00,VWS V14.01,2013-03-19 06:06:00,
2013-03-19 02:11:00,35.7,32.8,29.88,ENE,73,0.0,0.0,89,0.00,,SCT,0.00,VWS V14.01,2013-03-19 06:11:00,
2013-03-19 02:16:00,35.7,32.8,29.85,ENE,74,0.0,0.0,89,0.00,,SCT,0.00,VWS V14.01,2013-03-19 06:16:00,
2013-03-19 02:21:00,35.7,32.8,29.85,ENE,74,0.0,0.0,89,0.00,,SCT,0.00,VWS V14.01,2013-03-19 06:21:00,
2013-03-19 02:26:00,35.7,32.8,29.85,ENE,74,0.0,0.0,89,0.00,,SCT,0.00,VWS V14.01,2013-03-19 06:26:00,
2013-03-19 02:32:00,35.7,32.8,29.82,ENE,74,0.0,0.0,89,0.00,,SCT,0.00,VWS V14.01,2013-03-19 06:32:00,
2013-03-19 02:37:00,35.7,32.8,29.82,ENE,74,0.0,0.0,89,0.00,,SCT,0.00,VWS V14.01,2013-03-19 06:37:00,
2013-03-19 02:41:00,35.7,32.8,29.82,ENE,73,0.0,0.0,89,0.00,,SCT,0.00,VWS V14.01,2013-03-19 06:41:00,
2013-03-19 02:46:00,35.7,32.8,29.85,ENE,74,0.0,0.0,89,0.00,,SCT,0.00,VWS V14.01,2013-03-19 06:46:00,
2013-03-19 02:51:00,35.7,32.8,29.85,ENE,73,0.0,0.0,89,0.00,,SCT,0.00,VWS V14.01,2013-03-19 06:51:00,
2013-03-19 02:57:00,35.7,32.8,29.85,ENE,74,0.0,0.0,89,0.00,,SCT,0.00,VWS V14.01,2013-03-19 06:57:00,
2013-03-19 03:02:00,35.7,32.8,29.82,ENE,73,0.0,0.0,89,0.00,,SCT,0.00,VWS V14.01,2013-03-19 07:02:00,
2013-03-19 03:07:00,35.7,32.8,29.82,ENE,74,0.0,0.0,89,0.00,,SCT,0.00,VWS V14.01,2013-03-19 07:07:00,
2013-03-19 03:12:00,35.7,32.8,29.82,ENE,74,0.0,0.0,89,0.00,,SCT,0.00,VWS V14.01,2013-03-19 07:12:00,
2013-03-19 03:17:00,35.7,32.8,29.82,ENE,74,0.0,0.0,89,0.00,,SCT,0.00,VWS V14.01,2013-03-19 07:17:00,
2013-03-19 03:22:00,35.7,32.8,29.82,ENE,74,2.7,2.7,89,0.00,,SCT,0.00,VWS V14.01,2013-03-19 07:22:00,
2013-03-19 03:27:00,35.7,32.8,29.82,ENE,73,0.0,0.0,89,0.00,,SCT,0.00,VWS V14.01,2013-03-19 07:27:00,
2013-03-19 03:32:00,35.7,32.8,29.82,ENE,74,0.0,0.0,89,0.00,,SCT,0.00,VWS V14.01,2013-03-19 07:32:00,
2013-03-19 03:37:00,35.7,32.8,29.82,ENE,74,0.0,0.0,89,0.00,,SCT,0.00,VWS V14.01,2013-03-19 07:37:00,
2013-03-19 03:42:00,35.7,32.8,29.82,ENE,73,0.0,0.0,89,0.00,,SCT,0.00,VWS V14.01,2013-03-19 07:42:00,
2013-03-19 03:47:00,35.7,32.8,29.82,ENE,74,0.0,0.0,89,0.00,,SCT,0.00,VWS V14.01,2013-03-19 07:47:00,
2013-03-19 03:52:00,35.7,32.8,29.82,ENE,74,0.0,0.0,89,0.00,,SCT,0.00,VWS V14.01,2013-03-19 07:52:00,
2013-03-19 03:57:00,35.7,32.8,29.82,ENE,74,0.0,0.0,89,0.00,,SCT,0.00,VWS V14.01,2013-03-19 07:57:00,
2013-03-19 04:02:00,35.7,32.8,29.82,ENE,74,0.0,0.0,89,0.00,,SCT,0.00,VWS V14.01,2013-03-19 08:02:00,
2013-03-19 04:07:00,35.7,32.8,29.82,ENE,73,0.0,0.0,89,0.00,,SCT,0.00,VWS V14.01,2013-03-19 08:07:00,
2013-03-19 04:12:00,35.7,32.8,29.82,ENE,74,0.0,0.0,89,0.00,,SCT,0.00,VWS V14.01,2013-03-19 08:12:00,
2013-03-19 04:17:00,35.7,32.8,29.79,ENE,74,0.0,0.0,89,0.00,,SCT,0.00,VWS V14.01,2013-03-19 08:17:00,
2013-03-19 04:22:00,35.7,32.8,29.79,ENE,74,0.0,3.1,89,0.00,,SCT,0.00,VWS V14.01,2013-03-19 08:22:00,
2013-03-19 04:27:00,35.7,32.8,29.79,ENE,73,3.1,3.6,89,0.00,,SCT,0.00,VWS V14.01,2013-03-19 08:27:00,
2013-03-19 04:32:00,35.7,32.8,29.82,ENE,74,0.0,2.7,89,0.00,,SCT,0.00,VWS V14.01,2013-03-19 08:32:00,
2013-03-19 04:37:00,35.7,32.8,29.82,ENE,73,0.0,2.7,89,0.00,,SCT,0.00,VWS V14.01,2013-03-19 08:37:00,
2013-03-19 04:42:00,35.7,32.8,29.82,ENE,74,3.1,3.6,89,0.00,,SCT,0.00,VWS V14.01,2013-03-19 08:42:00,
2013-03-19 04:47:00,35.7,32.8,29.79,WSW,246,2.7,3.1,89,0.00,,SCT,0.00,VWS V14.01,2013-03-19 08:47:00,
2013-03-19 04:52:00,35.7,32.8,29.79,WSW,247,2.7,2.7,89,0.00,,SCT,0.00,VWS V14.01,2013-03-19 08:52:00,
2013-03-19 04:57:00,35.7,32.8,29.79,WSW,247,2.7,3.6,89,0.00,,SCT,0.00,VWS V14.01,2013-03-19 08:57:00,
2013-03-19 05:02:00,35.7,32.8,29.82,West,263,0.0,3.1,89,0.00,,SCT,0.00,VWS V14.01,2013-03-19 09:02:00,
2013-03-19 05:07:00,35.7,32.8,29.82,WSW,256,2.7,5.4,89,0.00,,SCT,0.00,VWS V14.01,2013-03-19 09:07:00,
2013-03-19 05:12:00,35.7,32.8,29.82,WSW,257,3.1,4.0,89,0.00,,SCT,0.00,VWS V14.01,2013-03-19 09:12:00,
2013-03-19 05:17:00,35.7,32.8,29.82,WSW,257,3.1,3.1,89,0.00,,SCT,0.00,VWS V14.01,2013-03-19 09:17:00,
2013-03-19 05:22:00,35.7,32.8,29.82,WSW,257,3.1,4.9,89,0.00,,SCT,0.00,VWS V14.01,2013-03-19 09:22:00,
2013-03-19 05:27:00,35.7,32.8,29.82,WSW,256,3.1,3.6,89,0.00,,SCT,0.00,VWS V14.01,2013-03-19 09:27:00,
2013-03-19 05:32:00,35.7,32.8,29.82,WSW,256,0.0,3.1,89,0.00,,SCT,0.00,VWS V14.01,2013-03-19 09:32:00,
2013-03-19 05:37:00,35.7,32.8,29.82,WSW,256,3.1,4.0,89,0.00,,SCT,0.00,VWS V14.01,2013-03-19 09:37:00,
2013-03-19 05:42:00,35.7,32.8,29.82,WSW,258,3.1,4.9,89,0.00,,SCT,0.00,VWS V14.01,2013-03-19 09:42:00,
2013-03-19 05:47:00,35.7,32.8,29.82,WSW,256,5.8,5.8,89,0.00,,SCT,0.00,VWS V14.01,2013-03-19 09:47:00,
2013-03-19 05:52:00,35.1,32.2,29.82,West,270,5.8,5.8,89,0.00,,SCT,0.00,VWS V14.01,2013-03-19 09:52:00,
2013-03-19 05:57:00,35.0,32.0,29.82,West,259,4.5,5.4,89,0.00,,SCT,0.00,VWS V14.01,2013-03-19 09:57:00,
2013-03-19 06:02:00,35.0,32.0,29.82,West,267,3.6,4.0,89,0.00,,SCT,0.00,VWS V14.01,2013-03-19 10:02:00,
2013-03-19 06:07:00,35.0,32.0,29.82,WSW,244,5.4,5.4,89,0.00,,SCT,0.00,VWS V14.01,2013-03-19 10:07:00,
2013-03-19 06:12:00,35.1,32.2,29.82,West,265,3.6,4.0,89,0.00,,SCT,0.00,VWS V14.01,2013-03-19 10:12:00,
2013-03-19 06:17:00,35.1,32.2,29.82,WSW,254,3.6,4.5,89,0.00,,SCT,0.00,VWS V14.01,2013-03-19 10:17:00,
2013-03-19 06:22:00,35.1,32.2,29.82,WSW,251,3.1,4.9,89,0.00,,SCT,0.00,VWS V14.01,2013-03-19 10:22:00,
2013-03-19 06:27:00,35.1,32.2,29.82,WSW,254,3.6,4.5,89,0.00,,SCT,0.00,VWS V14.01,2013-03-19 10:27:00,
2013-03-19 06:32:00,35.3,33.0,29.82,WSW,254,2.7,2.7,91,0.00,,SCT,0.00,VWS V14.01,2013-03-19 10:32:00,
2013-03-19 06:37:00,35.3,33.0,29.82,WSW,254,2.7,2.7,91,0.00,,SCT,0.00,VWS V14.01,2013-03-19 10:37:00,
2013-03-19 06:42:00,35.3,33.0,29.82,WSW,254,2.7,2.7,91,0.00,,SCT,0.00,VWS V14.01,2013-03-19 10:42:00,
2013-03-19 06:47:00,35.1,32.5,29.79,WSW,254,2.7,2.7,90,0.00,,SCT,0.00,VWS V14.01,2013-03-19 10:47:00,
2013-03-19 06:52:00,35.1,32.5,29.79,WSW,254,2.7,2.7,90,0.00,,SCT,0.00,VWS V14.01,2013-03-19 10:52:00,
2013-03-19 06:57:00,35.1,32.5,29.79,WSW,254,3.6,4.0,90,0.00,,SCT,0.00,VWS V14.01,2013-03-19 10:57:00,
2013-03-19 07:02:00,35.0,32.3,29.82,West,263,4.0,4.0,90,0.00,,SCT,0.00,VWS V14.01,2013-03-19 11:02:00,
2013-03-19 07:07:00,34.8,32.2,29.82,West,266,3.1,4.0,90,0.00,,SCT,0.00,VWS V14.01,2013-03-19 11:07:00,
2013-03-19 07:12:00,34.8,32.2,29.82,West,268,3.1,4.0,90,0.00,,SCT,0.00,VWS V14.01,2013-03-19 11:12:00,
2013-03-19 07:17:00,34.8,32.2,29.82,West,266,3.1,3.6,90,0.00,,SCT,0.00,VWS V14.01,2013-03-19 11:17:00,
2013-03-19 07:22:00,34.6,32.0,29.82,WSW,253,5.4,5.4,90,0.00,,SCT,0.00,VWS V14.01,2013-03-19 11:22:00,
2013-03-19 07:27:00,34.8,32.4,29.82,WSW,258,5.4,6.3,91,0.00,,SCT,0.00,VWS V14.01,2013-03-19 11:27:00,
2013-03-19 07:32:00,34.8,32.4,29.82,West,266,3.6,4.9,91,0.00,,SCT,0.00,VWS V14.01,2013-03-19 11:32:00,
2013-03-19 07:37:00,35.0,32.6,29.82,West,266,3.6,5.8,91,0.00,,SCT,0.00,VWS V14.01,2013-03-19 11:37:00,
2013-03-19 07:42:00,35.1,32.8,29.82,West,272,4.0,5.4,91,0.00,,SCT,0.00,VWS V14.01,2013-03-19 11:42:00,
2013-03-19 07:47:00,35.1,32.8,29.82,West,272,3.6,3.6,91,0.00,,SCT,0.00,VWS V14.01,2013-03-19 11:47:00,
2013-03-19 07:52:00,35.1,32.8,29.82,SW,219,4.0,4.0,91,0.00,,SCT,0.00,VWS V14.01,2013-03-19 11:52:00,
2013-03-19 07:57:00,35.3,33.0,29.82,West,269,3.6,4.5,91,0.00,,SCT,0.00,VWS V14.01,2013-03-19 11:57:00,
2013-03-19 08:02:00,35.7,33.3,29.82,WNW,288,0.0,3.6,91,0.00,,SCT,0.00,VWS V14.01,2013-03-19 12:02:00,
2013-03-19 08:07:00,35.9,33.5,29.82,WSW,244,0.0,0.0,91,0.00,,SCT,0.00,VWS V14.01,2013-03-19 12:07:00,
2013-03-19 08:12:00,36.0,33.7,29.82,West,261,3.1,3.1,91,0.00,,SCT,0.00,VWS V14.01,2013-03-19 12:12:00,
2013-03-19 08:17:00,36.2,33.8,29.82,West,269,2.7,2.7,91,0.00,,SCT,0.00,VWS V14.01,2013-03-19 12:17:00,
2013-03-19 08:22:00,36.4,34.0,29.82,WSW,252,2.7,4.9,91,0.00,,SCT,0.00,VWS V14.01,2013-03-19 12:22:00,
2013-03-19 08:27:00,36.8,34.4,29.82,WSW,251,3.1,3.1,91,0.00,,SCT,0.00,VWS V14.01,2013-03-19 12:27:00,
2013-03-19 08:32:00,36.9,34.6,29.82,WSW,257,2.7,2.7,91,0.00,,SCT,0.00,VWS V14.01,2013-03-19 12:32:00,
2013-03-19 08:37:00,37.3,34.9,29.82,WSW,247,2.7,3.1,91,0.00,,SCT,0.00,VWS V14.01,2013-03-19 12:37:00,
2013-03-19 08:42:00,37.5,35.1,29.82,West,265,2.7,2.7,91,0.00,,SCT,0.00,VWS V14.01,2013-03-19 12:42:00,
2013-03-19 08:47:00,37.8,35.5,29.82,West,263,3.6,3.6,91,0.00,,SCT,0.00,VWS V14.01,2013-03-19 12:47:00,
2013-03-19 08:52:00,38.2,35.8,29.82,West,263,3.1,3.1,91,0.00,,BKN,0.00,VWS V14.01,2013-03-19 12:52:00,
2013-03-19 08:57:00,38.4,36.0,29.82,WSW,256,3.6,3.6,91,0.00,,BKN,0.00,VWS V14.01,2013-03-19 12:57:00,
2013-03-19 09:02:00,38.7,36.3,29.82,West,264,3.1,3.6,91,0.00,,BKN,0.00,VWS V14.01,2013-03-19 13:02:00,
2013-03-19 09:07:00,39.3,36.9,29.82,West,264,3.6,3.6,91,0.00,,BKN,0.00,VWS V14.01,2013-03-19 13:07:00,
2013-03-19 09:12:00,40.0,37.9,29.82,WSW,257,4.9,4.9,92,0.00,,BKN,0.00,VWS V14.01,2013-03-19 13:12:00,
2013-03-19 09:17:00,40.5,38.4,29.82,West,272,3.6,4.0,92,0.00,,BKN,0.00,VWS V14.01,2013-03-19 13:17:00,
2013-03-19 09:22:00,40.7,38.6,29.82,West,267,3.6,3.6,92,0.00,,BKN,0.00,VWS V14.01,2013-03-19 13:22:00,
2013-03-19 09:27:00,40.7,38.3,29.82,WSW,252,3.1,3.6,91,0.00,,BKN,0.00,VWS V14.01,2013-03-19 13:27:00,
2013-03-19 09:32:00,40.2,37.8,29.82,West,268,2.7,3.1,91,0.00,,BKN,0.00,VWS V14.01,2013-03-19 13:32:00,
2013-03-19 09:37:00,39.5,36.8,29.82,WSW,249,2.7,2.7,90,0.00,,BKN,0.00,VWS V14.01,2013-03-19 13:37:00,
2013-03-19 09:42:00,39.1,36.4,29.82,WSW,249,0.0,0.0,90,0.00,,BKN,0.00,VWS V14.01,2013-03-19 13:42:00,
2013-03-19 09:47:00,40.2,37.8,29.82,WSW,243,3.6,4.9,91,0.00,,BKN,0.00,VWS V14.01,2013-03-19 13:47:00,
2013-03-19 09:52:00,42.2,40.3,29.82,West,266,2.7,4.5,93,0.00,,BKN,0.00,VWS V14.01,2013-03-19 13:52:00,
2013-03-19 09:57:00,43.8,41.9,29.82,West,275,3.1,3.6,93,0.00,,BKN,0.00,VWS V14.01,2013-03-19 13:57:00,
2013-03-19 10:02:00,45.2,43.3,29.82,WSW,257,4.0,5.4,93,0.00,,BKN,0.00,VWS V14.01,2013-03-19 14:02:00,
2013-03-19 10:07:00,46.5,44.6,29.82,West,273,3.1,4.0,93,0.00,,BKN,0.00,VWS V14.01,2013-03-19 14:07:00,
2013-03-19 10:12:00,47.4,45.5,29.82,West,264,5.4,5.4,93,0.00,,BKN,0.00,VWS V14.01,2013-03-19 14:12:00,
2013-03-19 10:17:00,48.3,46.3,29.82,West,274,5.8,8.7,93,0.00,,BKN,0.00,VWS V14.01,2013-03-19 14:17:00,
2013-03-19 10:22:00,49.2,47.2,29.82,West,265,5.8,5.8,93,0.00,,BKN,0.00,VWS V14.01,2013-03-19 14:22:00,
2013-03-19 10:27:00,50.1,47.8,29.82,WSW,247,3.1,5.4,92,0.00,,BKN,0.00,VWS V14.01,2013-03-19 14:27:00,
2013-03-19 10:32:00,50.8,48.6,29.82,WSW,255,6.7,7.4,92,0.00,,BKN,0.00,VWS V14.01,2013-03-19 14:32:00,
2013-03-19 10:37:00,51.3,48.8,29.82,WSW,258,5.8,5.8,91,0.00,,BKN,0.00,VWS V14.01,2013-03-19 14:37:00,
2013-03-19 10:42:00,51.9,48.8,29.82,WNW,283,3.1,5.8,89,0.00,,BKN,0.00,VWS V14.01,2013-03-19 14:42:00,
2013-03-19 10:47:00,52.4,48.7,29.82,WNW,286,5.4,7.8,87,0.00,,BKN,0.00,VWS V14.01,2013-03-19 14:47:00,
2013-03-19 10:52:00,52.8,48.4,29.82,West,279,5.4,6.3,85,0.00,,BKN,0.00,VWS V14.01,2013-03-19 14:52:00,
2013-03-19 10:57:00,53.5,48.2,29.82,West,275,3.1,3.6,82,0.00,,BKN,0.00,VWS V14.01,2013-03-19 14:57:00,
2013-03-19 11:02:00,53.7,46.3,29.82,West,259,2.7,6.3,76,0.00,,BKN,0.12,VWS V14.01,2013-03-19 15:02:00,
2013-03-19 11:07:00,54.4,47.0,29.82,WNW,291,2.7,5.8,76,0.00,,BKN,0.00,VWS V14.01,2013-03-19 15:07:00,
2013-03-19 11:12:00,54.8,45.9,29.82,WSW,258,4.0,4.0,72,0.00,,BKN,0.00,VWS V14.01,2013-03-19 15:12:00,
2013-03-19 11:17:00,55.3,44.9,29.82,West,264,6.3,6.3,68,0.00,,BKN,0.00,VWS V14.01,2013-03-19 15:17:00,
2013-03-19 11:22:00,55.5,43.9,29.82,WNW,282,5.8,5.8,65,0.00,,BKN,0.00,VWS V14.01,2013-03-19 15:22:00,
2013-03-19 11:27:00,55.7,39.3,29.82,WNW,283,3.6,3.6,54,0.00,,BKN,0.00,VWS V14.01,2013-03-19 15:27:00,
2013-03-19 11:32:00,56.4,38.0,29.82,WNW,289,6.3,6.3,50,0.00,,BKN,0.00,VWS V14.01,2013-03-19 15:32:00,
2013-03-19 11:37:00,56.4,33.6,29.82,West,263,4.9,6.7,42,0.00,,BKN,0.00,VWS V14.01,2013-03-19 15:37:00,
2013-03-19 11:42:00,56.6,32.5,29.82,WSW,245,6.3,6.3,40,0.00,,BKN,0.00,VWS V14.01,2013-03-19 15:42:00,
2013-03-19 11:47:00,56.6,29.2,29.82,West,267,4.9,4.9,35,0.00,,BKN,0.00,VWS V14.01,2013-03-19 15:47:00,
2013-03-19 11:52:00,56.6,29.2,29.82,WSW,243,4.9,4.9,35,0.00,,BKN,0.00,VWS V14.01,2013-03-19 15:52:00,
2013-03-19 11:57:00,56.6,28.5,29.82,West,265,5.8,10.1,34,0.00,,BKN,0.00,VWS V14.01,2013-03-19 15:57:00,
2013-03-19 12:02:00,56.6,27.8,29.82,WNW,286,4.9,4.9,33,0.00,,BKN,0.00,VWS V14.01,2013-03-19 16:02:00,
2013-03-19 12:07:00,56.6,27.8,29.82,WNW,291,4.9,5.4,33,0.00,,BKN,0.00,VWS V14.01,2013-03-19 16:07:00,
2013-03-19 12:12:00,56.6,27.1,29.82,West,275,6.3,9.6,32,0.00,,BKN,0.00,VWS V14.01,2013-03-19 16:12:00,
2013-03-19 12:17:00,56.6,27.1,29.82,WNW,290,4.5,4.9,32,0.00,,BKN,0.00,VWS V14.01,2013-03-19 16:17:00,
2013-03-19 12:22:00,56.6,27.1,29.82,WSW,245,6.9,6.9,32,0.00,,BKN,0.00,VWS V14.01,2013-03-19 16:22:00,
2013-03-19 12:27:00,56.6,27.1,29.82,WSW,254,4.0,6.3,32,0.00,,BKN,0.00,VWS V14.01,2013-03-19 16:27:00,
2013-03-19 12:32:00,56.6,26.3,29.82,WSW,258,6.9,7.4,31,0.00,,BKN,0.00,VWS V14.01,2013-03-19 16:32:00,
2013-03-19 12:37:00,60.3,29.6,29.85,West,275,5.8,5.8,31,0.00,,BKN,0.00,VWS V14.01,2013-03-19 16:37:00,
2013-03-19 12:42:00,60.3,29.6,29.88,West,275,5.8,5.8,31,0.00,,BKN,0.00,VWS V14.01,2013-03-19 16:42:00,
2013-03-19 12:47:00,60.5,29.8,29.88,West,275,5.8,5.8,31,0.00,,BKN,0.00,VWS V14.01,2013-03-19 16:47:00,
2013-03-19 12:52:00,60.5,29.8,29.88,West,275,5.8,5.8,31,0.00,,BKN,0.00,VWS V14.01,2013-03-19 16:52:00,
2013-03-19 12:57:00,60.7,29.9,29.88,West,275,5.8,5.8,31,0.00,,BKN,0.00,VWS V14.01,2013-03-19 16:57:00,
2013-03-19 13:02:00,60.7,27.4,29.88,West,272,5.4,6.9,28,0.00,,BKN,0.00,VWS V14.01,2013-03-19 17:02:00,
2013-03-19 13:07:00,61.1,29.4,29.88,West,271,7.8,7.8,30,0.00,,BKN,0.00,VWS V14.01,2013-03-19 17:07:00,
2013-03-19 13:12:00,61.6,29.9,29.88,WSW,256,6.9,6.9,30,0.00,,BKN,0.00,VWS V14.01,2013-03-19 17:12:00,
2013-03-19 13:17:00,62.1,28.7,29.88,West,269,6.7,6.9,28,0.00,,BKN,0.00,VWS V14.01,2013-03-19 17:17:00,
2013-03-19 13:22:00,62.3,30.5,29.88,SW,234,6.9,6.9,30,0.00,,BKN,0.00,VWS V14.01,2013-03-19 17:22:00,
2013-03-19 13:27:00,62.9,28.4,29.88,WSW,247,6.7,7.4,27,0.00,,BKN,0.00,VWS V14.01,2013-03-19 17:27:00,
2013-03-19 13:32:00,62.9,28.4,29.88,West,276,4.0,4.5,27,0.00,,BKN,0.00,VWS V14.01,2013-03-19 17:32:00,
2013-03-19 13:37:00,62.9,28.4,29.88,West,264,4.9,6.9,27,0.00,,BKN,0.00,VWS V14.01,2013-03-19 17:37:00,
2013-03-19 13:42:00,62.9,28.4,29.88,West,262,3.1,5.8,27,0.00,,BKN,0.00,VWS V14.01,2013-03-19 17:42:00,
2013-03-19 13:47:00,62.9,28.4,29.88,West,278,7.8,7.8,27,0.00,,BKN,0.00,VWS V14.01,2013-03-19 17:47:00,
2013-03-19 13:52:00,63.6,29.0,29.88,West,274,2.7,4.5,27,0.00,,BKN,0.00,VWS V14.01,2013-03-19 17:52:00,
2013-03-19 13:57:00,63.9,29.3,29.85,WSW,251,7.8,7.8,27,0.00,,BKN,0.00,VWS V14.01,2013-03-19 17:57:00,
2013-03-19 14:02:00,64.1,29.5,29.85,West,260,6.3,8.3,27,0.00,,BKN,0.00,VWS V14.01,2013-03-19 18:02:00,
2013-03-19 14:07:00,64.5,29.8,29.85,WNW,287,4.0,5.8,27,0.00,,BKN,0.00,VWS V14.01,2013-03-19 18:07:00,
2013-03-19 14:12:00,64.8,30.1,29.85,West,261,5.8,6.9,27,0.00,,BKN,0.00,VWS V14.01,2013-03-19 18:12:00,
2013-03-19 14:17:00,65.2,30.4,29.85,SW,216,5.8,5.8,27,0.00,,BKN,0.00,VWS V14.01,2013-03-19 18:17:00,
2013-03-19 14:22:00,65.0,30.2,29.85,West,262,3.6,5.4,27,0.00,,BKN,0.00,VWS V14.01,2013-03-19 18:22:00,
2013-03-19 14:27:00,65.0,30.2,29.85,West,264,9.6,9.6,27,0.00,,BKN,0.00,VWS V14.01,2013-03-19 18:27:00,
2013-03-19 14:32:00,65.0,27.4,29.85,West,275,5.4,5.4,24,0.00,,BKN,0.00,VWS V14.01,2013-03-19 18:32:00,
2013-03-19 14:37:00,64.8,27.2,29.85,WNW,294,4.9,8.3,24,0.00,,BKN,0.00,VWS V14.01,2013-03-19 18:37:00,
2013-03-19 14:42:00,65.2,27.5,29.85,West,266,5.4,6.7,24,0.00,,BKN,0.00,VWS V14.01,2013-03-19 18:42:00,
2013-03-19 14:47:00,65.4,27.7,29.85,WSW,251,2.7,5.4,24,0.00,,BKN,0.00,VWS V14.01,2013-03-19 18:47:00,
2013-03-19 14:52:00,65.4,27.7,29.85,WSW,249,6.9,9.2,24,0.00,,BKN,0.00,VWS V14.01,2013-03-19 18:52:00,
2013-03-19 14:58:00,65.2,27.5,29.85,West,265,6.9,7.8,24,0.00,,BKN,0.00,VWS V14.01,2013-03-19 18:58:00,
2013-03-19 15:03:00,65.2,27.5,29.85,West,279,9.2,11.2,24,0.00,,BKN,0.00,VWS V14.01,2013-03-19 19:03:00,
2013-03-19 15:08:00,65.6,27.8,29.85,West,277,10.5,10.5,24,0.00,,BKN,0.00,VWS V14.01,2013-03-19 19:08:00,
2013-03-19 15:13:00,65.2,27.5,29.85,WSW,256,6.9,8.3,24,0.00,,BKN,0.00,VWS V14.01,2013-03-19 19:13:00,
2013-03-19 15:18:00,65.2,27.5,29.85,WNW,299,5.4,6.7,24,0.00,,BKN,0.00,VWS V14.01,2013-03-19 19:18:00,
2013-03-19 15:23:00,65.4,27.7,29.85,West,267,6.3,6.3,24,0.00,,BKN,0.00,VWS V14.01,2013-03-19 19:23:00,
2013-03-19 15:28:00,65.0,27.4,29.88,WNW,302,5.4,5.4,24,0.00,,BKN,0.00,VWS V14.01,2013-03-19 19:28:00,
2013-03-19 15:33:00,64.8,27.2,29.88,West,276,6.3,12.5,24,0.00,,BKN,0.00,VWS V14.01,2013-03-19 19:33:00,
2013-03-19 15:38:00,64.8,27.2,29.88,WSW,253,4.9,9.2,24,0.00,,BKN,0.00,VWS V14.01,2013-03-19 19:38:00,
2013-03-19 15:43:00,65.0,27.4,29.85,West,278,5.8,11.2,24,0.00,,BKN,0.00,VWS V14.01,2013-03-19 19:43:00,
2013-03-19 15:48:00,64.8,27.2,29.85,West,272,7.4,14.3,24,0.00,,BKN,0.00,VWS V14.01,2013-03-19 19:48:00,
2013-03-19 15:53:00,64.5,26.9,29.85,WNW,297,5.4,6.7,24,0.00,,BKN,0.00,VWS V14.01,2013-03-19 19:53:00,
2013-03-19 15:58:00,64.1,27.6,29.85,West,262,7.4,7.4,25,0.00,,BKN,0.00,VWS V14.01,2013-03-19 19:58:00,
2013-03-19 16:03:00,63.9,27.5,29.85,WSW,253,9.2,11.2,25,0.00,,BKN,0.00,VWS V14.01,2013-03-19 20:03:00,
2013-03-19 16:08:00,63.8,27.3,29.85,West,260,6.3,8.3,25,0.00,,BKN,0.00,VWS V14.01,2013-03-19 20:08:00,
2013-03-19 16:13:00,63.4,27.0,29.85,WSW,257,6.3,10.5,25,0.00,,BKN,0.00,VWS V14.01,2013-03-19 20:13:00,
2013-03-19 16:18:00,63.2,26.8,29.85,West,280,4.9,6.3,25,0.00,,BKN,0.00,VWS V14.01,2013-03-19 20:18:00,
2013-03-19 16:23:00,63.4,27.0,29.85,WSW,255,5.8,11.0,25,0.00,,BKN,0.00,VWS V14.01,2013-03-19 20:23:00,
2013-03-19 16:28:00,62.5,26.2,29.85,West,277,6.9,12.5,25,0.00,,BKN,0.00,VWS V14.01,2013-03-19 20:28:00,
2013-03-19 16:33:00,62.0,25.8,29.85,West,265,3.6,6.9,25,0.00,,BKN,0.00,VWS V14.01,2013-03-19 20:33:00,
2013-03-19 16:38:00,61.2,25.2,29.85,West,270,10.1,10.1,25,0.00,,BKN,0.00,VWS V14.01,2013-03-19 20:38:00,
2013-03-19 16:43:00,60.7,25.6,29.85,WNW,283,8.3,8.3,26,0.00,,BKN,0.00,VWS V14.01,2013-03-19 20:43:00,
2013-03-19 16:48:00,60.3,25.3,29.85,West,279,6.7,12.5,26,0.00,,BKN,0.00,VWS V14.01,2013-03-19 20:48:00,
2013-03-19 16:53:00,60.0,25.0,29.85,West,263,13.0,14.3,26,0.00,,BKN,0.00,VWS V14.01,2013-03-19 20:53:00,
2013-03-19 16:58:00,59.8,24.9,29.85,West,275,6.3,9.2,26,0.00,,BKN,0.00,VWS V14.01,2013-03-19 20:58:00,
2013-03-19 17:03:00,59.8,24.9,29.85,West,270,7.8,7.8,26,0.00,,BKN,0.00,VWS V14.01,2013-03-19 21:03:00,
2013-03-19 17:08:00,59.6,24.7,29.85,WSW,250,9.6,9.6,26,0.00,,BKN,0.00,VWS V14.01,2013-03-19 21:08:00,
2013-03-19 17:13:00,59.6,24.7,29.85,West,280,6.3,10.5,26,0.00,,BKN,0.00,VWS V14.01,2013-03-19 21:13:00,
2013-03-19 17:18:00,59.3,24.4,29.85,West,271,6.3,10.1,26,0.00,,BKN,0.00,VWS V14.01,2013-03-19 21:18:00,
2013-03-19 17:23:00,59.3,24.4,29.85,West,259,9.2,10.5,26,0.00,,BKN,0.00,VWS V14.01,2013-03-19 21:23:00,
2013-03-19 17:28:00,59.1,24.2,29.85,WNW,284,5.8,11.2,26,0.00,,BKN,0.00,VWS V14.01,2013-03-19 21:28:00,
2013-03-19 17:33:00,59.1,24.2,29.85,West,279,7.8,7.8,26,0.00,,BKN,0.00,VWS V14.01,2013-03-19 21:33:00,
2013-03-19 17:38:00,58.9,24.1,29.85,WSW,255,7.4,11.2,26,0.00,,BKN,0.00,VWS V14.01,2013-03-19 21:38:00,
2013-03-19 17:43:00,58.7,24.0,29.85,West,262,9.2,15.4,26,0.00,,BKN,0.00,VWS V14.01,2013-03-19 21:43:00,
2013-03-19 17:48:00,58.7,24.0,29.85,West,268,4.0,6.3,26,0.00,,BKN,0.00,VWS V14.01,2013-03-19 21:48:00,
2013-03-19 17:53:00,58.7,24.0,29.85,NW,317,4.0,10.1,26,0.00,,BKN,0.00,VWS V14.01,2013-03-19 21:53:00,
2013-03-19 17:58:00,58.9,24.1,29.88,WSW,254,6.7,8.7,26,0.00,,BKN,0.00,VWS V14.01,2013-03-19 21:58:00,
2013-03-19 18:03:00,58.5,23.8,29.88,West,266,5.4,7.4,26,0.00,,BKN,0.00,VWS V14.01,2013-03-19 22:03:00,
2013-03-19 18:08:00,58.4,23.6,29.88,SW,227,4.9,6.3,26,0.00,,BKN,0.00,VWS V14.01,2013-03-19 22:08:00,
2013-03-19 18:13:00,58.0,23.3,29.88,WNW,285,4.5,13.4,26,0.00,,BKN,0.00,VWS V14.01,2013-03-19 22:13:00,
2013-03-19 18:18:00,57.8,23.2,29.88,WSW,256,6.7,7.8,26,0.00,,BKN,0.00,VWS V14.01,2013-03-19 22:18:00,
2013-03-19 18:23:00,57.5,22.9,29.88,West,266,5.4,7.8,26,0.00,,BKN,0.00,VWS V14.01,2013-03-19 22:23:00,
2013-03-19 18:28:00,57.3,22.7,29.88,WSW,245,4.0,5.8,26,0.00,,BKN,0.00,VWS V14.01,2013-03-19 22:28:00,
2013-03-19 18:33:00,56.7,22.2,29.88,West,261,3.1,4.5,26,0.00,,BKN,0.00,VWS V14.01,2013-03-19 22:33:00,
2013-03-19 18:38:00,56.2,21.8,29.88,WNW,282,6.7,8.3,26,0.00,,BKN,0.00,VWS V14.01,2013-03-19 22:38:00,
2013-03-19 18:43:00,55.8,21.5,29.91,WNW,295,4.5,6.9,26,0.00,,BKN,0.00,VWS V14.01,2013-03-19 22:43:00,
2013-03-19 18:48:00,55.5,21.2,29.91,West,280,8.7,11.2,26,0.00,,BKN,0.00,VWS V14.01,2013-03-19 22:48:00,
2013-03-19 18:53:00,54.9,21.6,29.91,WNW,291,4.0,5.8,27,0.00,,BKN,0.00,VWS V14.01,2013-03-19 22:53:00,
2013-03-19 18:58:00,54.4,21.1,29.91,WSW,256,8.7,8.7,27,0.00,,BKN,0.00,VWS V14.01,2013-03-19 22:58:00,
2013-03-19 19:03:00,54.0,20.8,29.91,South,172,5.8,5.8,27,0.00,,BKN,0.00,VWS V14.01,2013-03-19 23:03:00,
2013-03-19 19:08:00,53.7,20.5,29.91,West,273,7.8,10.1,27,0.00,,BKN,0.00,VWS V14.01,2013-03-19 23:08:00,
2013-03-19 19:13:00,53.3,20.2,29.91,West,269,4.0,6.7,27,0.00,,BKN,0.00,VWS V14.01,2013-03-19 23:13:00,
2013-03-19 19:18:00,53.0,19.9,29.91,WSW,256,4.0,7.8,27,0.00,,BKN,0.00,VWS V14.01,2013-03-19 23:18:00,
2013-03-19 19:23:00,52.6,19.6,29.91,WNW,290,5.4,5.8,27,0.00,,BKN,0.00,VWS V14.01,2013-03-19 23:23:00,
2013-03-19 19:28:00,52.1,19.1,29.91,WSW,248,6.9,9.6,27,0.00,,BKN,0.00,VWS V14.01,2013-03-19 23:28:00,
2013-03-19 19:33:00,51.9,19.0,29.91,WNW,294,3.6,5.4,27,0.00,,BKN,0.00,VWS V14.01,2013-03-19 23:33:00,
2013-03-19 19:38:00,51.5,19.5,29.91,WSW,250,3.6,5.4,28,0.00,,BKN,0.00,VWS V14.01,2013-03-19 23:38:00,
2013-03-19 19:43:00,51.2,19.2,29.94,WNW,294,3.1,4.0,28,0.00,,BKN,0.00,VWS V14.01,2013-03-19 23:43:00,
2013-03-19 19:48:00,50.6,18.7,29.94,WSW,241,4.5,6.3,28,0.00,,BKN,0.00,VWS V14.01,2013-03-19 23:48:00,
2013-03-19 19:53:00,50.1,18.3,29.94,NW,304,3.1,9.6,28,0.00,,BKN,0.00,VWS V14.01,2013-03-19 23:53:00,
2013-03-19 19:58:00,49.9,18.1,29.94,WSW,255,3.6,7.8,28,0.00,,BKN,0.00,VWS V14.01,2013-03-19 23:58:00,
2013-03-19 20:03:00,49.9,18.1,29.94,WSW,253,5.4,5.4,28,0.00,,BKN,0.00,VWS V14.01,2013-03-20 00:03:00,
2013-03-19 20:08:00,49.5,17.8,29.94,West,273,5.4,5.4,28,0.00,,BKN,0.00,VWS V14.01,2013-03-20 00:08:00,
2013-03-19 20:13:00,49.2,17.5,29.94,WNW,290,4.9,5.8,28,0.00,,BKN,0.00,VWS V14.01,2013-03-20 00:13:00,
2013-03-19 20:18:00,49.0,17.3,29.94,WNW,302,5.4,6.9,28,0.00,,BKN,0.00,VWS V14.01,2013-03-20 00:18:00,
2013-03-19 20:23:00,49.0,17.3,29.94,West,281,6.3,6.9,28,0.00,,BKN,0.00,VWS V14.01,2013-03-20 00:23:00,
2013-03-19 20:28:00,48.8,17.2,29.97,West,266,4.0,4.5,28,0.00,,BKN,0.00,VWS V14.01,2013-03-20 00:28:00,
2013-03-19 20:33:00,48.3,16.7,29.97,West,268,6.7,6.7,28,0.00,,BKN,0.00,VWS V14.01,2013-03-20 00:33:00,
2013-03-19 20:38:00,48.1,16.5,29.97,WSW,239,8.3,8.3,28,0.00,,BKN,0.00,VWS V14.01,2013-03-20 00:38:00,
2013-03-19 20:43:00,48.1,16.5,29.97,WSW,256,4.5,6.7,28,0.00,,BKN,0.00,VWS V14.01,2013-03-20 00:43:00,
2013-03-19 20:48:00,47.9,16.4,29.97,West,278,5.8,6.7,28,0.00,,BKN,0.00,VWS V14.01,2013-03-20 00:48:00,
2013-03-19 20:53:00,47.9,16.4,29.97,West,262,4.9,7.4,28,0.00,,BKN,0.00,VWS V14.01,2013-03-20 00:53:00,
2013-03-19 20:58:00,47.9,16.4,29.97,West,259,4.9,4.9,28,0.00,,BKN,0.00,VWS V14.01,2013-03-20 00:58:00,
2013-03-19 21:03:00,47.7,16.2,29.97,West,273,3.1,6.3,28,0.00,,BKN,0.00,VWS V14.01,2013-03-20 01:03:00,
2013-03-19 21:08:00,47.4,15.9,29.97,WNW,283,4.0,5.4,28,0.00,,BKN,0.00,VWS V14.01,2013-03-20 01:08:00,
2013-03-19 21:13:00,47.0,15.6,30.00,West,266,4.9,5.8,28,0.00,,BKN,0.00,VWS V14.01,2013-03-20 01:13:00,
2013-03-19 21:17:00,46.7,15.3,30.00,WSW,252,5.4,5.8,28,0.00,,BKN,0.00,VWS V14.01,2013-03-20 01:17:00,
2013-03-19 21:22:00,46.3,15.8,30.00,SW,219,6.7,7.4,29,0.00,,BKN,0.00,VWS V14.01,2013-03-20 01:22:00,
2013-03-19 21:27:00,45.9,15.5,30.00,WSW,257,6.3,6.3,29,0.00,,BKN,0.00,VWS V14.01,2013-03-20 01:27:00,
2013-03-19 21:32:00,46.1,15.6,30.00,West,274,4.5,6.9,29,0.00,,BKN,0.00,VWS V14.01,2013-03-20 01:32:00,
2013-03-19 21:37:00,45.9,15.5,30.00,West,274,3.6,5.8,29,0.00,,BKN,0.00,VWS V14.01,2013-03-20 01:37:00,
2013-03-19 21:42:00,45.4,15.0,30.00,West,267,3.1,4.9,29,0.00,,BKN,0.00,VWS V14.01,2013-03-20 01:42:00,
2013-03-19 21:47:00,45.0,14.7,30.00,WSW,253,3.1,4.5,29,0.00,,BKN,0.00,VWS V14.01,2013-03-20 01:47:00,
2013-03-19 21:52:00,44.5,14.2,30.00,SW,221,4.9,4.9,29,0.00,,BKN,0.00,VWS V14.01,2013-03-20 01:52:00,
2013-03-19 21:57:00,44.1,13.9,30.00,West,278,0.0,0.0,29,0.00,,BKN,0.00,VWS V14.01,2013-03-20 01:57:00,
2013-03-19 22:02:00,44.0,13.8,30.00,West,269,3.6,4.0,29,0.00,,BKN,0.00,VWS V14.01,2013-03-20 02:02:00,
2013-03-19 22:07:00,43.6,13.5,30.00,WNW,297,4.5,4.5,29,0.00,,BKN,0.00,VWS V14.01,2013-03-20 02:07:00,
2013-03-19 22:12:00,43.2,13.1,30.00,WSW,257,3.1,3.6,29,0.00,,BKN,0.00,VWS V14.01,2013-03-20 02:12:00,
2013-03-19 22:17:00,42.9,12.8,30.00,WSW,257,0.0,2.7,29,0.00,,BKN,0.00,VWS V14.01,2013-03-20 02:17:00,
2013-03-19 22:22:00,42.7,12.7,30.00,West,280,3.1,6.7,29,0.00,,BKN,0.00,VWS V14.01,2013-03-20 02:22:00,
2013-03-19 22:27:00,42.7,12.7,30.03,West,268,0.0,0.0,29,0.00,,BKN,0.00,VWS V14.01,2013-03-20 02:27:00,
2013-03-19 22:32:00,42.7,12.7,30.03,West,262,3.1,3.6,29,0.00,,BKN,0.00,VWS V14.01,2013-03-20 02:32:00,
2013-03-19 22:37:00,42.3,13.1,30.03,WSW,251,0.0,3.1,30,0.00,,BKN,0.00,VWS V14.01,2013-03-20 02:37:00,
2013-03-19 22:42:00,42.0,12.8,30.03,West,265,3.1,3.6,30,0.00,,BKN,0.00,VWS V14.01,2013-03-20 02:42:00,
2013-03-19 22:47:00,41.8,12.7,30.03,West,261,0.0,4.0,30,0.00,,BKN,0.00,VWS V14.01,2013-03-20 02:47:00,
2013-03-19 22:52:00,42.0,12.8,30.03,West,267,3.1,4.0,30,0.00,,BKN,0.00,VWS V14.01,2013-03-20 02:52:00,
2013-03-19 22:57:00,41.8,12.7,30.03,WSW,255,3.1,3.6,30,0.00,,BKN,0.00,VWS V14.01,2013-03-20 02:57:00,
2013-03-19 23:02:00,41.6,12.5,30.03,West,280,4.0,5.8,30,0.00,,BKN,0.00,VWS V14.01,2013-03-20 03:02:00,
2013-03-19 23:07:00,41.8,12.7,30.03,West,276,2.7,6.9,30,0.00,,BKN,0.00,VWS V14.01,2013-03-20 03:07:00,
2013-03-19 23:12:00,42.0,12.8,30.03,WSW,254,0.0,3.1,30,0.00,,BKN,0.00,VWS V14.01,2013-03-20 03:12:00,
2013-03-19 23:17:00,41.6,12.5,30.03,WSW,248,3.6,4.0,30,0.00,,BKN,0.00,VWS V14.01,2013-03-20 03:17:00,
2013-03-19 23:22:00,41.4,12.3,30.03,NW,307,3.6,3.6,30,0.00,,BKN,0.00,VWS V14.01,2013-03-20 03:22:00,
2013-03-19 23:27:00,41.8,12.7,30.03,West,267,2.7,2.7,30,0.00,,BKN,0.00,VWS V14.01,2013-03-20 03:27:00,
2013-03-19 23:32:00,41.6,12.5,30.03,West,269,3.1,3.6,30,0.00,,BKN,0.00,VWS V14.01,2013-03-20 03:32:00,
2013-03-19 23:37:00,41.3,12.2,30.03,SW,236,0.0,3.1,30,0.00,,BKN,0.00,VWS V14.01,2013-03-20 03:37:00,
2013-03-19 23:42:00,41.1,12.0,30.03,WSW,256,3.1,4.9,30,0.00,,BKN,0.00,VWS V14.01,2013-03-20 03:42:00,
2013-03-19 23:47:00,40.7,11.7,30.03,West,267,0.0,3.6,30,0.00,,BKN,0.00,VWS V14.01,2013-03-20 03:47:00,
2013-03-19 23:52:00,40.4,11.4,30.03,West,267,0.0,0.0,30,0.00,,BKN,0.00,VWS V14.01,2013-03-20 03:52:00,
2013-03-19 23:57:00,40.2,11.2,30.03,West,266,3.1,3.1,30,0.00,,BKN,0.00,VWS V14.01,2013-03-20 03:57:00,